PAVD METAR and TAF weather

Enter ICAO airport designator
Station Type Date Time Source
PAVD METAR 2022/11/30 15:56 UTC NOAA

PAVD 301556Z 00000KT 10SM CLR A3047 RMK AO2 SLPNO M09/M15 PNO $


Station Type Date Time Source
PAVD Decoded METAR 2022/11/30 15:56 UTC NOAA

Valdez 2, AK, United States (PAVD) 61-08N 146-16W
Nov 30, 2022 - 10:56 AM EST / 2022.11.30 1556 UTC
Wind: Calm:0
Visibility: 10 mile(s):0
Sky conditions: clear
Pressure (altimeter): 30.47 in. Hg (1031 hPa)
ob: PAVD 301556Z 00000KT 10SM CLR A3047 RMK AO2 SLPNO M09/M15 PNO
cycle: 16

Station Type Date Time Source
PAVD TAF 2022/11/30 12:36 UTC NOAA

TAF PAVD 301135Z 3012/0112 07007KT P6SM SKC
FM010200 11005KT P6SM VCSH OVC050
FM010600 07006KT 4SM -SN BR OVC030
FM010800 07008KT 2SM -SN BR OVC025
AMD LTD TO CLD VIS AND WIND

Example: see airport list